sensor_id;sensor_type;location;lat;lon;timestamp;P1;durP1;ratioP1;P2;durP2;ratioP2
69401;SDS011;56589;51.992;5.924;2023-01-16T00:00:43;5.78;;;1.02;;
69401;SDS011;56589;51.992;5.924;2023-01-16T00:03:09;1.95;;;0.68;;
69401;SDS011;56589;51.992;5.924;2023-01-16T00:05:35;3.00;;;0.98;;
69401;SDS011;56589;51.992;5.924;2023-01-16T00:08:00;3.95;;;0.93;;
69401;SDS011;56589;51.992;5.924;2023-01-16T00:10:26;4.28;;;1.40;;
69401;SDS011;56589;51.992;5.924;2023-01-16T00:12:52;2.70;;;0.98;;
69401;SDS011;56589;51.992;5.924;2023-01-16T00:15:18;3.38;;;1.20;;
69401;SDS011;56589;51.992;5.924;2023-01-16T00:17:46;6.03;;;1.25;;
69401;SDS011;56589;51.992;5.924;2023-01-16T00:20:12;5.25;;;0.90;;
69401;SDS011;56589;51.992;5.924;2023-01-16T00:22:38;1.55;;;0.60;;
69401;SDS011;56589;51.992;5.924;2023-01-16T00:25:04;4.40;;;0.90;;
69401;SDS011;56589;51.992;5.924;2023-01-16T00:27:32;4.93;;;1.38;;
69401;SDS011;56589;51.992;5.924;2023-01-16T00:29:57;3.83;;;0.85;;
69401;SDS011;56589;51.992;5.924;2023-01-16T00:32:23;3.35;;;1.27;;
69401;SDS011;56589;51.992;5.924;2023-01-16T00:34:52;3.60;;;1.40;;
69401;SDS011;56589;51.992;5.924;2023-01-16T00:37:17;3.15;;;1.88;;
69401;SDS011;56589;51.992;5.924;2023-01-16T00:39:43;2.47;;;1.73;;
69401;SDS011;56589;51.992;5.924;2023-01-16T00:42:09;5.40;;;1.70;;
69401;SDS011;56589;51.992;5.924;2023-01-16T00:44:35;3.53;;;2.05;;
69401;SDS011;56589;51.992;5.924;2023-01-16T00:47:01;4.38;;;2.00;;
69401;SDS011;56589;51.992;5.924;2023-01-16T00:49:27;4.18;;;2.20;;
69401;SDS011;56589;51.992;5.924;2023-01-16T00:51:56;4.30;;;2.30;;
69401;SDS011;56589;51.992;5.924;2023-01-16T00:54:21;3.63;;;2.50;;
69401;SDS011;56589;51.992;5.924;2023-01-16T00:56:48;4.07;;;2.55;;
69401;SDS011;56589;51.992;5.924;2023-01-16T00:59:13;3.58;;;3.00;;
69401;SDS011;56589;51.992;5.924;2023-01-16T01:01:39;3.67;;;3.20;;
69401;SDS011;56589;51.992;5.924;2023-01-16T01:04:05;3.90;;;3.50;;
69401;SDS011;56589;51.992;5.924;2023-01-16T01:06:31;7.55;;;3.85;;
69401;SDS011;56589;51.992;5.924;2023-01-16T01:08:59;6.55;;;4.20;;
69401;SDS011;56589;51.992;5.924;2023-01-16T01:11:25;7.07;;;4.07;;
69401;SDS011;56589;51.992;5.924;2023-01-16T01:13:51;4.68;;;4.18;;
69401;SDS011;56589;51.992;5.924;2023-01-16T01:16:17;5.47;;;3.88;;
69401;SDS011;56589;51.992;5.924;2023-01-16T01:18:43;4.50;;;3.95;;
69401;SDS011;56589;51.992;5.924;2023-01-16T01:21:09;6.75;;;4.10;;
69401;SDS011;56589;51.992;5.924;2023-01-16T01:23:35;5.18;;;3.63;;
69401;SDS011;56589;51.992;5.924;2023-01-16T01:26:07;5.47;;;3.75;;
69401;SDS011;56589;51.992;5.924;2023-01-16T01:28:36;5.55;;;4.05;;
69401;SDS011;56589;51.992;5.924;2023-01-16T01:31:02;4.47;;;3.50;;
69401;SDS011;56589;51.992;5.924;2023-01-16T01:33:30;5.30;;;4.00;;
69401;SDS011;56589;51.992;5.924;2023-01-16T01:35:56;4.53;;;3.25;;
69401;SDS011;56589;51.992;5.924;2023-01-16T01:38:22;5.93;;;3.50;;
69401;SDS011;56589;51.992;5.924;2023-01-16T01:40:48;5.28;;;3.45;;
69401;SDS011;56589;51.992;5.924;2023-01-16T01:43:16;4.63;;;3.08;;
69401;SDS011;56589;51.992;5.924;2023-01-16T01:45:44;6.32;;;3.30;;
69401;SDS011;56589;51.992;5.924;2023-01-16T01:48:18;4.57;;;3.13;;
69401;SDS011;56589;51.992;5.924;2023-01-16T01:50:52;3.67;;;2.35;;
69401;SDS011;56589;51.992;5.924;2023-01-16T01:53:25;3.78;;;2.80;;
69401;SDS011;56589;51.992;5.924;2023-01-16T01:56:00;5.20;;;2.90;;
69401;SDS011;56589;51.992;5.924;2023-01-16T01:58:35;6.85;;;2.85;;
69401;SDS011;56589;51.992;5.924;2023-01-16T02:01:01;5.40;;;2.25;;
69401;SDS011;56589;51.992;5.924;2023-01-16T02:03:30;6.25;;;2.53;;
69401;SDS011;56589;51.992;5.924;2023-01-16T02:06:03;8.57;;;2.85;;
69401;SDS011;56589;51.992;5.924;2023-01-16T02:08:37;6.57;;;2.65;;
69401;SDS011;56589;51.992;5.924;2023-01-16T02:11:04;6.25;;;2.15;;
69401;SDS011;56589;51.992;5.924;2023-01-16T02:13:38;8.48;;;2.00;;
69401;SDS011;56589;51.992;5.924;2023-01-16T02:16:05;3.58;;;1.60;;
69401;SDS011;56589;51.992;5.924;2023-01-16T02:18:31;5.85;;;1.35;;
69401;SDS011;56589;51.992;5.924;2023-01-16T02:21:00;9.95;;;1.95;;
69401;SDS011;56589;51.992;5.924;2023-01-16T02:24:06;5.25;;;1.33;;
69401;SDS011;56589;51.992;5.924;2023-01-16T02:27:07;6.43;;;1.80;;
69401;SDS011;56589;51.992;5.924;2023-01-16T02:33:22;6.97;;;1.35;;
69401;SDS011;56589;51.992;5.924;2023-01-16T02:36:04;5.70;;;1.50;;
69401;SDS011;56589;51.992;5.924;2023-01-16T02:38:43;9.93;;;1.50;;
69401;SDS011;56589;51.992;5.924;2023-01-16T02:41:26;3.80;;;1.17;;
69401;SDS011;56589;51.992;5.924;2023-01-16T02:44:04;6.80;;;1.23;;
69401;SDS011;56589;51.992;5.924;2023-01-16T02:46:46;8.50;;;1.27;;
69401;SDS011;56589;51.992;5.924;2023-01-16T02:49:28;7.28;;;1.80;;
69401;SDS011;56589;51.992;5.924;2023-01-16T02:52:04;7.80;;;1.23;;
69401;SDS011;56589;51.992;5.924;2023-01-16T02:54:40;6.07;;;1.30;;
69401;SDS011;56589;51.992;5.924;2023-01-16T02:57:15;5.30;;;1.95;;
69401;SDS011;56589;51.992;5.924;2023-01-16T02:59:43;5.85;;;1.10;;
69401;SDS011;56589;51.992;5.924;2023-01-16T03:02:10;5.03;;;1.00;;
69401;SDS011;56589;51.992;5.924;2023-01-16T03:04:42;6.35;;;0.90;;
69401;SDS011;56589;51.992;5.924;2023-01-16T03:10:25;6.03;;;1.05;;
69401;SDS011;56589;51.992;5.924;2023-01-16T03:13:15;4.43;;;1.35;;
69401;SDS011;56589;51.992;5.924;2023-01-16T03:15:59;6.35;;;1.08;;
69401;SDS011;56589;51.992;5.924;2023-01-16T03:18:39;7.25;;;1.30;;
69401;SDS011;56589;51.992;5.924;2023-01-16T03:21:19;4.65;;;1.00;;
69401;SDS011;56589;51.992;5.924;2023-01-16T03:24:02;5.63;;;1.10;;
69401;SDS011;56589;51.992;5.924;2023-01-16T03:26:44;6.40;;;0.97;;
69401;SDS011;56589;51.992;5.924;2023-01-16T03:31:53;5.75;;;1.00;;
69401;SDS011;56589;51.992;5.924;2023-01-16T03:34:30;10.02;;;1.08;;
69401;SDS011;56589;51.992;5.924;2023-01-16T03:37:07;2.45;;;0.90;;
69401;SDS011;56589;51.992;5.924;2023-01-16T03:39:40;5.70;;;1.27;;
69401;SDS011;56589;51.992;5.924;2023-01-16T03:42:12;3.63;;;1.40;;
69401;SDS011;56589;51.992;5.924;2023-01-16T03:44:45;6.70;;;1.48;;
69401;SDS011;56589;51.992;5.924;2023-01-16T03:47:19;3.60;;;1.48;;
69401;SDS011;56589;51.992;5.924;2023-01-16T03:49:52;3.70;;;0.88;;
69401;SDS011;56589;51.992;5.924;2023-01-16T03:52:31;5.90;;;1.05;;
69401;SDS011;56589;51.992;5.924;2023-01-16T03:55:04;9.13;;;1.25;;
69401;SDS011;56589;51.992;5.924;2023-01-16T03:57:41;3.85;;;0.85;;
69401;SDS011;56589;51.992;5.924;2023-01-16T04:00:15;9.75;;;2.13;;
69401;SDS011;56589;51.992;5.924;2023-01-16T04:02:44;6.68;;;1.23;;
69401;SDS011;56589;51.992;5.924;2023-01-16T04:05:21;5.97;;;1.20;;
69401;SDS011;56589;51.992;5.924;2023-01-16T04:07:57;9.57;;;1.90;;
69401;SDS011;56589;51.992;5.924;2023-01-16T04:10:32;6.85;;;1.90;;
69401;SDS011;56589;51.992;5.924;2023-01-16T04:13:04;5.25;;;1.17;;
69401;SDS011;56589;51.992;5.924;2023-01-16T04:15:36;4.60;;;1.27;;
69401;SDS011;56589;51.992;5.924;2023-01-16T04:18:09;3.65;;;1.17;;
69401;SDS011;56589;51.992;5.924;2023-01-16T04:20:36;4.97;;;1.42;;
69401;SDS011;56589;51.992;5.924;2023-01-16T04:23:12;4.93;;;1.17;;
69401;SDS011;56589;51.992;5.924;2023-01-16T04:25:38;7.72;;;1.38;;
69401;SDS011;56589;51.992;5.924;2023-01-16T04:28:06;4.55;;;1.58;;
69401;SDS011;56589;51.992;5.924;2023-01-16T04:30:33;7.82;;;1.20;;
69401;SDS011;56589;51.992;5.924;2023-01-16T04:33:00;7.15;;;1.27;;
69401;SDS011;56589;51.992;5.924;2023-01-16T04:35:26;6.78;;;1.35;;
69401;SDS011;56589;51.992;5.924;2023-01-16T04:37:52;4.45;;;1.30;;
69401;SDS011;56589;51.992;5.924;2023-01-16T04:40:23;4.90;;;1.13;;
69401;SDS011;56589;51.992;5.924;2023-01-16T04:42:50;7.15;;;1.85;;
69401;SDS011;56589;51.992;5.924;2023-01-16T04:45:17;5.07;;;0.98;;
69401;SDS011;56589;51.992;5.924;2023-01-16T04:47:44;6.55;;;1.33;;
69401;SDS011;56589;51.992;5.924;2023-01-16T04:50:11;3.78;;;1.00;;
69401;SDS011;56589;51.992;5.924;2023-01-16T04:52:36;8.98;;;1.20;;
69401;SDS011;56589;51.992;5.924;2023-01-16T04:55:02;5.90;;;1.00;;
69401;SDS011;56589;51.992;5.924;2023-01-16T04:57:32;5.30;;;1.17;;
69401;SDS011;56589;51.992;5.924;2023-01-16T04:59:58;6.50;;;1.30;;
69401;SDS011;56589;51.992;5.924;2023-01-16T05:02:23;9.52;;;2.30;;
69401;SDS011;56589;51.992;5.924;2023-01-16T05:04:49;7.65;;;2.13;;
69401;SDS011;56589;51.992;5.924;2023-01-16T05:07:15;8.02;;;2.28;;
69401;SDS011;56589;51.992;5.924;2023-01-16T05:09:41;6.75;;;2.33;;
69401;SDS011;56589;51.992;5.924;2023-01-16T05:12:07;10.30;;;2.15;;
69401;SDS011;56589;51.992;5.924;2023-01-16T05:14:36;5.22;;;2.10;;
69401;SDS011;56589;51.992;5.924;2023-01-16T05:17:02;7.75;;;2.45;;
69401;SDS011;56589;51.992;5.924;2023-01-16T05:19:27;8.05;;;2.22;;
69401;SDS011;56589;51.992;5.924;2023-01-16T05:21:53;6.07;;;2.33;;
69401;SDS011;56589;51.992;5.924;2023-01-16T05:24:19;3.45;;;1.83;;
69401;SDS011;56589;51.992;5.924;2023-01-16T05:26:47;6.90;;;1.80;;
69401;SDS011;56589;51.992;5.924;2023-01-16T05:29:12;4.68;;;1.23;;
69401;SDS011;56589;51.992;5.924;2023-01-16T05:31:41;4.63;;;1.20;;
69401;SDS011;56589;51.992;5.924;2023-01-16T05:34:08;7.15;;;1.35;;
69401;SDS011;56589;51.992;5.924;2023-01-16T05:36:34;6.03;;;1.20;;
69401;SDS011;56589;51.992;5.924;2023-01-16T05:39:00;5.78;;;1.70;;
69401;SDS011;56589;51.992;5.924;2023-01-16T05:41:26;4.13;;;1.00;;
69401;SDS011;56589;51.992;5.924;2023-01-16T05:43:52;6.53;;;1.27;;
69401;SDS011;56589;51.992;5.924;2023-01-16T05:46:18;5.75;;;1.33;;
69401;SDS011;56589;51.992;5.924;2023-01-16T05:48:47;4.72;;;1.30;;
69401;SDS011;56589;51.992;5.924;2023-01-16T05:51:12;4.28;;;0.95;;
69401;SDS011;56589;51.992;5.924;2023-01-16T05:53:38;3.60;;;1.15;;
69401;SDS011;56589;51.992;5.924;2023-01-16T05:56:08;6.40;;;2.35;;
69401;SDS011;56589;51.992;5.924;2023-01-16T05:58:36;2.88;;;1.17;;
69401;SDS011;56589;51.992;5.924;2023-01-16T06:01:03;4.57;;;1.17;;
69401;SDS011;56589;51.992;5.924;2023-01-16T06:03:29;3.38;;;1.17;;
69401;SDS011;56589;51.992;5.924;2023-01-16T06:05:58;8.85;;;1.13;;
69401;SDS011;56589;51.992;5.924;2023-01-16T06:08:23;6.97;;;0.95;;
69401;SDS011;56589;51.992;5.924;2023-01-16T06:10:49;6.05;;;1.25;;
69401;SDS011;56589;51.992;5.924;2023-01-16T06:13:15;6.35;;;1.30;;
69401;SDS011;56589;51.992;5.924;2023-01-16T06:15:41;3.92;;;1.50;;
69401;SDS011;56589;51.992;5.924;2023-01-16T06:18:07;4.68;;;1.83;;
69401;SDS011;56589;51.992;5.924;2023-01-16T06:20:33;3.80;;;1.20;;
69401;SDS011;56589;51.992;5.924;2023-01-16T06:23:02;4.20;;;1.08;;
69401;SDS011;56589;51.992;5.924;2023-01-16T06:25:27;3.80;;;0.93;;
69401;SDS011;56589;51.992;5.924;2023-01-16T06:27:53;3.30;;;0.90;;
69401;SDS011;56589;51.992;5.924;2023-01-16T06:30:19;3.90;;;0.63;;
69401;SDS011;56589;51.992;5.924;2023-01-16T06:32:47;4.07;;;0.73;;
69401;SDS011;56589;51.992;5.924;2023-01-16T06:35:13;4.63;;;0.80;;
69401;SDS011;56589;51.992;5.924;2023-01-16T06:37:39;2.13;;;0.75;;
69401;SDS011;56589;51.992;5.924;2023-01-16T06:40:08;2.83;;;1.00;;
69401;SDS011;56589;51.992;5.924;2023-01-16T06:42:35;5.43;;;0.90;;
69401;SDS011;56589;51.992;5.924;2023-01-16T06:45:01;2.58;;;0.90;;
69401;SDS011;56589;51.992;5.924;2023-01-16T06:47:27;4.07;;;0.80;;
69401;SDS011;56589;51.992;5.924;2023-01-16T06:49:53;4.00;;;1.20;;
69401;SDS011;56589;51.992;5.924;2023-01-16T06:52:19;2.75;;;0.70;;
69401;SDS011;56589;51.992;5.924;2023-01-16T06:54:45;3.55;;;1.15;;
69401;SDS011;56589;51.992;5.924;2023-01-16T06:57:13;1.40;;;0.70;;
69401;SDS011;56589;51.992;5.924;2023-01-16T06:59:39;3.85;;;0.80;;
69401;SDS011;56589;51.992;5.924;2023-01-16T07:02:05;3.63;;;0.90;;
69401;SDS011;56589;51.992;5.924;2023-01-16T07:04:31;4.00;;;1.13;;
69401;SDS011;56589;51.992;5.924;2023-01-16T07:06:56;2.67;;;0.73;;
69401;SDS011;56589;51.992;5.924;2023-01-16T07:09:22;2.15;;;1.00;;
69401;SDS011;56589;51.992;5.924;2023-01-16T07:11:48;3.33;;;1.42;;
69401;SDS011;56589;51.992;5.924;2023-01-16T07:14:16;3.22;;;1.42;;
69401;SDS011;56589;51.992;5.924;2023-01-16T07:16:42;3.42;;;1.10;;
69401;SDS011;56589;51.992;5.924;2023-01-16T07:19:08;4.68;;;1.33;;
69401;SDS011;56589;51.992;5.924;2023-01-16T07:21:36;3.00;;;1.00;;
69401;SDS011;56589;51.992;5.924;2023-01-16T07:24:08;3.58;;;1.20;;
69401;SDS011;56589;51.992;5.924;2023-01-16T07:26:40;4.13;;;1.25;;
69401;SDS011;56589;51.992;5.924;2023-01-16T07:29:13;6.57;;;1.65;;
69401;SDS011;56589;51.992;5.924;2023-01-16T07:31:42;3.90;;;1.58;;
69401;SDS011;56589;51.992;5.924;2023-01-16T07:34:09;10.02;;;1.50;;
69401;SDS011;56589;51.992;5.924;2023-01-16T07:36:34;5.85;;;1.77;;
69401;SDS011;56589;51.992;5.924;2023-01-16T07:39:00;3.63;;;1.10;;
69401;SDS011;56589;51.992;5.924;2023-01-16T07:41:26;4.22;;;1.38;;
69401;SDS011;56589;51.992;5.924;2023-01-16T07:43:52;7.03;;;1.55;;
69401;SDS011;56589;51.992;5.924;2023-01-16T07:46:18;3.33;;;1.02;;
69401;SDS011;56589;51.992;5.924;2023-01-16T07:48:46;5.68;;;1.35;;
69401;SDS011;56589;51.992;5.924;2023-01-16T07:51:12;3.47;;;1.45;;
69401;SDS011;56589;51.992;5.924;2023-01-16T07:53:38;8.43;;;1.80;;
69401;SDS011;56589;51.992;5.924;2023-01-16T07:56:04;2.83;;;1.73;;
69401;SDS011;56589;51.992;5.924;2023-01-16T07:58:30;3.72;;;1.20;;
69401;SDS011;56589;51.992;5.924;2023-01-16T08:00:56;3.72;;;1.20;;
69401;SDS011;56589;51.992;5.924;2023-01-16T08:03:23;5.10;;;1.67;;
69401;SDS011;56589;51.992;5.924;2023-01-16T08:05:56;3.83;;;1.20;;
69401;SDS011;56589;51.992;5.924;2023-01-16T08:08:23;1.98;;;0.93;;
69401;SDS011;56589;51.992;5.924;2023-01-16T08:10:52;2.88;;;1.20;;
69401;SDS011;56589;51.992;5.924;2023-01-16T08:13:22;2.90;;;1.02;;
69401;SDS011;56589;51.992;5.924;2023-01-16T08:15:49;5.30;;;1.23;;
69401;SDS011;56589;51.992;5.924;2023-01-16T08:18:15;2.30;;;0.80;;
69401;SDS011;56589;51.992;5.924;2023-01-16T08:20:40;5.20;;;0.88;;
69401;SDS011;56589;51.992;5.924;2023-01-16T08:23:09;3.50;;;1.10;;
69401;SDS011;56589;51.992;5.924;2023-01-16T08:25:35;3.70;;;0.90;;
69401;SDS011;56589;51.992;5.924;2023-01-16T08:28:01;4.25;;;1.05;;
69401;SDS011;56589;51.992;5.924;2023-01-16T08:30:26;4.03;;;1.10;;
69401;SDS011;56589;51.992;5.924;2023-01-16T08:32:56;3.13;;;0.82;;
69401;SDS011;56589;51.992;5.924;2023-01-16T08:35:22;5.50;;;0.88;;
69401;SDS011;56589;51.992;5.924;2023-01-16T08:37:48;2.63;;;0.70;;
69401;SDS011;56589;51.992;5.924;2023-01-16T08:40:18;5.68;;;1.50;;
69401;SDS011;56589;51.992;5.924;2023-01-16T08:42:44;2.60;;;0.60;;
69401;SDS011;56589;51.992;5.924;2023-01-16T08:45:10;3.92;;;0.75;;
69401;SDS011;56589;51.992;5.924;2023-01-16T08:47:40;3.92;;;0.75;;
69401;SDS011;56589;51.992;5.924;2023-01-16T08:50:08;3.83;;;1.17;;
69401;SDS011;56589;51.992;5.924;2023-01-16T08:52:37;2.10;;;0.80;;
69401;SDS011;56589;51.992;5.924;2023-01-16T08:55:04;5.22;;;0.82;;
69401;SDS011;56589;51.992;5.924;2023-01-16T08:57:33;3.15;;;0.90;;
69401;SDS011;56589;51.992;5.924;2023-01-16T08:59:59;3.25;;;1.00;;
69401;SDS011;56589;51.992;5.924;2023-01-16T09:02:26;3.00;;;1.02;;
69401;SDS011;56589;51.992;5.924;2023-01-16T09:04:53;4.32;;;1.23;;
69401;SDS011;56589;51.992;5.924;2023-01-16T09:07:19;6.13;;;1.45;;
69401;SDS011;56589;51.992;5.924;2023-01-16T09:09:46;4.80;;;1.02;;
69401;SDS011;56589;51.992;5.924;2023-01-16T09:12:12;2.72;;;0.82;;
69401;SDS011;56589;51.992;5.924;2023-01-16T09:14:41;2.42;;;0.82;;
69401;SDS011;56589;51.992;5.924;2023-01-16T09:17:08;5.35;;;1.08;;
69401;SDS011;56589;51.992;5.924;2023-01-16T09:19:34;5.20;;;1.60;;
69401;SDS011;56589;51.992;5.924;2023-01-16T09:22:00;5.30;;;1.00;;
69401;SDS011;56589;51.992;5.924;2023-01-16T09:24:26;5.57;;;1.00;;
69401;SDS011;56589;51.992;5.924;2023-01-16T09:26:52;2.50;;;0.90;;
69401;SDS011;56589;51.992;5.924;2023-01-16T09:29:18;2.60;;;0.90;;
69401;SDS011;56589;51.992;5.924;2023-01-16T09:31:46;1.52;;;0.77;;
69401;SDS011;56589;51.992;5.924;2023-01-16T09:34:12;2.35;;;1.00;;
69401;SDS011;56589;51.992;5.924;2023-01-16T09:36:38;2.20;;;0.98;;
69401;SDS011;56589;51.992;5.924;2023-01-16T09:39:04;3.30;;;1.08;;
69401;SDS011;56589;51.992;5.924;2023-01-16T09:41:31;4.22;;;1.25;;
69401;SDS011;56589;51.992;5.924;2023-01-16T09:44:11;7.53;;;1.85;;
69401;SDS011;56589;51.992;5.924;2023-01-16T09:46:41;2.90;;;1.13;;
69401;SDS011;56589;51.992;5.924;2023-01-16T09:49:18;2.22;;;1.00;;
69401;SDS011;56589;51.992;5.924;2023-01-16T09:51:50;2.72;;;1.38;;
69401;SDS011;56589;51.992;5.924;2023-01-16T09:54:24;3.38;;;1.17;;
69401;SDS011;56589;51.992;5.924;2023-01-16T09:59:29;5.60;;;1.40;;
69401;SDS011;56589;51.992;5.924;2023-01-16T10:02:11;2.80;;;1.30;;
69401;SDS011;56589;51.992;5.924;2023-01-16T10:04:47;3.63;;;1.35;;
69401;SDS011;56589;51.992;5.924;2023-01-16T10:10:19;4.18;;;1.60;;
69401;SDS011;56589;51.992;5.924;2023-01-16T10:13:03;2.55;;;1.42;;
69401;SDS011;56589;51.992;5.924;2023-01-16T10:15:49;1.35;;;0.98;;
69401;SDS011;56589;51.992;5.924;2023-01-16T10:18:33;3.95;;;1.10;;
69401;SDS011;56589;51.992;5.924;2023-01-16T10:21:22;4.38;;;1.30;;
69401;SDS011;56589;51.992;5.924;2023-01-16T10:24:08;3.05;;;1.10;;
69401;SDS011;56589;51.992;5.924;2023-01-16T10:26:49;2.58;;;0.90;;
69401;SDS011;56589;51.992;5.924;2023-01-16T10:29:24;3.67;;;1.10;;
69401;SDS011;56589;51.992;5.924;2023-01-16T10:31:57;3.45;;;1.33;;
69401;SDS011;56589;51.992;5.924;2023-01-16T10:34:34;1.88;;;1.00;;
69401;SDS011;56589;51.992;5.924;2023-01-16T10:37:07;3.70;;;1.20;;
69401;SDS011;56589;51.992;5.924;2023-01-16T10:39:36;4.30;;;1.45;;
69401;SDS011;56589;51.992;5.924;2023-01-16T10:42:08;6.00;;;1.40;;
69401;SDS011;56589;51.992;5.924;2023-01-16T10:44:39;2.38;;;1.02;;
69401;SDS011;56589;51.992;5.924;2023-01-16T10:47:16;2.70;;;0.90;;
69401;SDS011;56589;51.992;5.924;2023-01-16T10:49:49;3.97;;;1.25;;
69401;SDS011;56589;51.992;5.924;2023-01-16T10:52:15;3.83;;;1.52;;
69401;SDS011;56589;51.992;5.924;2023-01-16T10:54:41;1.83;;;1.13;;
69401;SDS011;56589;51.992;5.924;2023-01-16T10:57:09;2.10;;;1.02;;
69401;SDS011;56589;51.992;5.924;2023-01-16T10:59:42;2.45;;;1.00;;
69401;SDS011;56589;51.992;5.924;2023-01-16T11:02:14;2.53;;;1.05;;
69401;SDS011;56589;51.992;5.924;2023-01-16T11:04:50;2.13;;;1.17;;
69401;SDS011;56589;51.992;5.924;2023-01-16T11:07:19;4.78;;;1.10;;
69401;SDS011;56589;51.992;5.924;2023-01-16T11:09:47;3.00;;;1.30;;
69401;SDS011;56589;51.992;5.924;2023-01-16T11:12:16;4.70;;;1.40;;
69401;SDS011;56589;51.992;5.924;2023-01-16T11:14:51;5.55;;;0.93;;
69401;SDS011;56589;51.992;5.924;2023-01-16T11:17:24;2.70;;;1.00;;
69401;SDS011;56589;51.992;5.924;2023-01-16T11:19:55;4.55;;;1.08;;
69401;SDS011;56589;51.992;5.924;2023-01-16T11:22:23;2.97;;;0.80;;
69401;SDS011;56589;51.992;5.924;2023-01-16T11:24:53;2.22;;;0.90;;
69401;SDS011;56589;51.992;5.924;2023-01-16T11:27:22;1.25;;;0.70;;
69401;SDS011;56589;51.992;5.924;2023-01-16T11:29:52;3.75;;;0.90;;
69401;SDS011;56589;51.992;5.924;2023-01-16T11:32:21;1.90;;;1.15;;
69401;SDS011;56589;51.992;5.924;2023-01-16T11:34:47;3.67;;;0.90;;
69401;SDS011;56589;51.992;5.924;2023-01-16T11:37:17;2.53;;;0.80;;
69401;SDS011;56589;51.992;5.924;2023-01-16T11:39:46;2.95;;;0.82;;
69401;SDS011;56589;51.992;5.924;2023-01-16T11:42:16;2.50;;;0.70;;
69401;SDS011;56589;51.992;5.924;2023-01-16T11:44:42;3.65;;;0.82;;
69401;SDS011;56589;51.992;5.924;2023-01-16T11:47:09;3.00;;;0.80;;
69401;SDS011;56589;51.992;5.924;2023-01-16T11:49:39;1.70;;;0.80;;
69401;SDS011;56589;51.992;5.924;2023-01-16T11:52:13;3.15;;;0.80;;
69401;SDS011;56589;51.992;5.924;2023-01-16T11:54:44;3.25;;;0.88;;
69401;SDS011;56589;51.992;5.924;2023-01-16T11:57:15;1.80;;;1.08;;
69401;SDS011;56589;51.992;5.924;2023-01-16T12:00:06;2.13;;;0.73;;
69401;SDS011;56589;51.992;5.924;2023-01-16T12:06:08;3.28;;;1.15;;
69401;SDS011;56589;51.992;5.924;2023-01-16T12:08:59;1.17;;;0.65;;
69401;SDS011;56589;51.992;5.924;2023-01-16T12:11:54;3.92;;;0.60;;
69401;SDS011;56589;51.992;5.924;2023-01-16T12:17:15;2.13;;;0.85;;
69401;SDS011;56589;51.992;5.924;2023-01-16T12:23:03;1.83;;;0.82;;
69401;SDS011;56589;51.992;5.924;2023-01-16T12:25:52;2.05;;;0.65;;
69401;SDS011;56589;51.992;5.924;2023-01-16T12:28:33;1.77;;;0.70;;
69401;SDS011;56589;51.992;5.924;2023-01-16T12:31:19;1.88;;;0.75;;
69401;SDS011;56589;51.992;5.924;2023-01-16T12:34:11;1.70;;;0.60;;
69401;SDS011;56589;51.992;5.924;2023-01-16T12:37:07;1.13;;;0.65;;
69401;SDS011;56589;51.992;5.924;2023-01-16T12:39:52;2.53;;;0.60;;
69401;SDS011;56589;51.992;5.924;2023-01-16T12:42:42;2.78;;;0.70;;
69401;SDS011;56589;51.992;5.924;2023-01-16T12:45:28;1.80;;;0.90;;
69401;SDS011;56589;51.992;5.924;2023-01-16T12:48:11;3.25;;;0.90;;
69401;SDS011;56589;51.992;5.924;2023-01-16T12:51:06;3.60;;;0.75;;
69401;SDS011;56589;51.992;5.924;2023-01-16T13:00:12;2.95;;;1.13;;
69401;SDS011;56589;51.992;5.924;2023-01-16T13:02:43;2.08;;;0.77;;
69401;SDS011;56589;51.992;5.924;2023-01-16T13:05:17;1.52;;;0.80;;
69401;SDS011;56589;51.992;5.924;2023-01-16T13:07:50;2.30;;;0.73;;
69401;SDS011;56589;51.992;5.924;2023-01-16T13:10:26;2.50;;;0.88;;
69401;SDS011;56589;51.992;5.924;2023-01-16T13:13:00;4.03;;;0.80;;
69401;SDS011;56589;51.992;5.924;2023-01-16T13:15:33;1.05;;;0.43;;
69401;SDS011;56589;51.992;5.924;2023-01-16T13:18:04;2.22;;;0.77;;
69401;SDS011;56589;51.992;5.924;2023-01-16T13:20:39;2.88;;;0.60;;
69401;SDS011;56589;51.992;5.924;2023-01-16T13:23:11;1.90;;;0.88;;
69401;SDS011;56589;51.992;5.924;2023-01-16T13:25:45;2.22;;;0.55;;
69401;SDS011;56589;51.992;5.924;2023-01-16T13:31:06;1.58;;;1.02;;
69401;SDS011;56589;51.992;5.924;2023-01-16T13:33:43;4.20;;;0.60;;
69401;SDS011;56589;51.992;5.924;2023-01-16T13:39:06;1.10;;;0.47;;
69401;SDS011;56589;51.992;5.924;2023-01-16T13:42:24;1.48;;;0.65;;
69401;SDS011;56589;51.992;5.924;2023-01-16T13:44:57;1.00;;;0.50;;
69401;SDS011;56589;51.992;5.924;2023-01-16T13:47:30;1.50;;;0.60;;
69401;SDS011;56589;51.992;5.924;2023-01-16T13:50:06;1.15;;;0.60;;
69401;SDS011;56589;51.992;5.924;2023-01-16T13:52:44;2.78;;;0.70;;
69401;SDS011;56589;51.992;5.924;2023-01-16T13:55:17;2.47;;;0.60;;
69401;SDS011;56589;51.992;5.924;2023-01-16T13:57:54;1.10;;;0.65;;
69401;SDS011;56589;51.992;5.924;2023-01-16T14:00:24;1.48;;;0.70;;
69401;SDS011;56589;51.992;5.924;2023-01-16T14:05:50;1.58;;;0.63;;
69401;SDS011;56589;51.992;5.924;2023-01-16T14:08:25;1.40;;;0.70;;
69401;SDS011;56589;51.992;5.924;2023-01-16T14:11:15;2.00;;;0.60;;
69401;SDS011;56589;51.992;5.924;2023-01-16T14:17:02;1.60;;;0.60;;
69401;SDS011;56589;51.992;5.924;2023-01-16T14:19:29;2.38;;;0.68;;
69401;SDS011;56589;51.992;5.924;2023-01-16T14:22:03;1.85;;;0.80;;
69401;SDS011;56589;51.992;5.924;2023-01-16T14:24:36;4.13;;;0.95;;
69401;SDS011;56589;51.992;5.924;2023-01-16T14:27:09;3.17;;;0.65;;
69401;SDS011;56589;51.992;5.924;2023-01-16T14:29:44;4.03;;;1.17;;
69401;SDS011;56589;51.992;5.924;2023-01-16T14:32:18;1.85;;;0.73;;
69401;SDS011;56589;51.992;5.924;2023-01-16T14:34:49;1.20;;;0.60;;
69401;SDS011;56589;51.992;5.924;2023-01-16T14:37:21;1.77;;;0.90;;
69401;SDS011;56589;51.992;5.924;2023-01-16T14:39:52;3.28;;;0.88;;
69401;SDS011;56589;51.992;5.924;2023-01-16T14:42:23;0.88;;;0.60;;
69401;SDS011;56589;51.992;5.924;2023-01-16T14:45:09;1.45;;;0.70;;
69401;SDS011;56589;51.992;5.924;2023-01-16T14:47:55;1.50;;;0.77;;
69401;SDS011;56589;51.992;5.924;2023-01-16T14:50:41;0.90;;;0.73;;
69401;SDS011;56589;51.992;5.924;2023-01-16T14:53:20;3.67;;;1.00;;
69401;SDS011;56589;51.992;5.924;2023-01-16T14:55:49;1.63;;;0.80;;
69401;SDS011;56589;51.992;5.924;2023-01-16T14:58:25;2.30;;;1.50;;
69401;SDS011;56589;51.992;5.924;2023-01-16T15:01:00;1.67;;;1.02;;
69401;SDS011;56589;51.992;5.924;2023-01-16T15:03:33;4.32;;;1.17;;
69401;SDS011;56589;51.992;5.924;2023-01-16T15:05:59;5.00;;;1.58;;
69401;SDS011;56589;51.992;5.924;2023-01-16T15:08:27;5.55;;;1.40;;
69401;SDS011;56589;51.992;5.924;2023-01-16T15:11:00;3.63;;;1.30;;
69401;SDS011;56589;51.992;5.924;2023-01-16T15:13:35;2.67;;;1.33;;
69401;SDS011;56589;51.992;5.924;2023-01-16T15:16:02;2.50;;;1.38;;
69401;SDS011;56589;51.992;5.924;2023-01-16T15:18:39;4.28;;;1.52;;
69401;SDS011;56589;51.992;5.924;2023-01-16T15:21:11;3.30;;;1.40;;
69401;SDS011;56589;51.992;5.924;2023-01-16T15:23:39;2.95;;;1.23;;
69401;SDS011;56589;51.992;5.924;2023-01-16T15:29:34;3.00;;;1.50;;
69401;SDS011;56589;51.992;5.924;2023-01-16T15:32:21;2.53;;;1.20;;
69401;SDS011;56589;51.992;5.924;2023-01-16T15:34:50;4.55;;;1.55;;
69401;SDS011;56589;51.992;5.924;2023-01-16T15:37:38;3.10;;;0.98;;
69401;SDS011;56589;51.992;5.924;2023-01-16T15:40:20;1.63;;;0.95;;
69401;SDS011;56589;51.992;5.924;2023-01-16T15:42:48;1.25;;;0.60;;
69401;SDS011;56589;51.992;5.924;2023-01-16T15:45:16;2.67;;;0.80;;
69401;SDS011;56589;51.992;5.924;2023-01-16T15:47:53;2.13;;;0.70;;
69401;SDS011;56589;51.992;5.924;2023-01-16T15:50:52;2.85;;;0.95;;
69401;SDS011;56589;51.992;5.924;2023-01-16T15:53:22;1.48;;;0.95;;
69401;SDS011;56589;51.992;5.924;2023-01-16T15:55:55;3.25;;;0.93;;
69401;SDS011;56589;51.992;5.924;2023-01-16T15:58:28;1.00;;;0.60;;